sensor_id;sensor_type;location;lat;lon;timestamp;P1;durP1;ratioP1;P2;durP2;ratioP2
19107;SDS011;9686;48.832;9.126;2023-06-14T00:01:13;6.73;;;6.13;;
19107;SDS011;9686;48.832;9.126;2023-06-14T00:03:39;6.40;;;5.80;;
19107;SDS011;9686;48.832;9.126;2023-06-14T00:06:04;6.43;;;5.90;;
19107;SDS011;9686;48.832;9.126;2023-06-14T00:08:29;6.37;;;5.87;;
19107;SDS011;9686;48.832;9.126;2023-06-14T00:10:55;6.83;;;6.20;;
19107;SDS011;9686;48.832;9.126;2023-06-14T00:13:20;6.40;;;5.83;;
19107;SDS011;9686;48.832;9.126;2023-06-14T00:15:46;7.43;;;6.73;;
19107;SDS011;9686;48.832;9.126;2023-06-14T00:18:12;8.23;;;6.23;;
19107;SDS011;9686;48.832;9.126;2023-06-14T00:20:38;7.10;;;6.10;;
19107;SDS011;9686;48.832;9.126;2023-06-14T00:23:04;7.83;;;6.70;;
19107;SDS011;9686;48.832;9.126;2023-06-14T00:25:29;6.67;;;5.63;;
19107;SDS011;9686;48.832;9.126;2023-06-14T00:27:55;5.93;;;5.50;;
19107;SDS011;9686;48.832;9.126;2023-06-14T00:30:21;6.57;;;6.07;;
19107;SDS011;9686;48.832;9.126;2023-06-14T00:32:46;6.80;;;6.20;;
19107;SDS011;9686;48.832;9.126;2023-06-14T00:35:12;7.17;;;5.50;;
19107;SDS011;9686;48.832;9.126;2023-06-14T00:37:38;6.23;;;5.63;;
19107;SDS011;9686;48.832;9.126;2023-06-14T00:40:04;6.00;;;5.50;;
19107;SDS011;9686;48.832;9.126;2023-06-14T00:42:30;5.90;;;5.40;;
19107;SDS011;9686;48.832;9.126;2023-06-14T00:44:55;5.37;;;4.97;;
19107;SDS011;9686;48.832;9.126;2023-06-14T00:47:21;6.30;;;5.10;;
19107;SDS011;9686;48.832;9.126;2023-06-14T00:49:46;6.80;;;4.87;;
19107;SDS011;9686;48.832;9.126;2023-06-14T00:52:13;5.53;;;4.83;;
19107;SDS011;9686;48.832;9.126;2023-06-14T00:54:40;6.33;;;5.30;;
19107;SDS011;9686;48.832;9.126;2023-06-14T00:57:11;4.93;;;4.40;;
19107;SDS011;9686;48.832;9.126;2023-06-14T00:59:38;5.67;;;5.07;;
19107;SDS011;9686;48.832;9.126;2023-06-14T01:02:10;7.33;;;5.13;;
19107;SDS011;9686;48.832;9.126;2023-06-14T01:04:36;6.40;;;4.77;;
19107;SDS011;9686;48.832;9.126;2023-06-14T01:07:54;6.00;;;5.40;;
19107;SDS011;9686;48.832;9.126;2023-06-14T01:12:49;6.50;;;5.20;;
19107;SDS011;9686;48.832;9.126;2023-06-14T01:15:18;6.37;;;4.93;;
19107;SDS011;9686;48.832;9.126;2023-06-14T01:17:46;6.60;;;5.50;;
19107;SDS011;9686;48.832;9.126;2023-06-14T01:20:16;7.23;;;6.27;;
19107;SDS011;9686;48.832;9.126;2023-06-14T01:22:54;5.93;;;5.33;;
19107;SDS011;9686;48.832;9.126;2023-06-14T01:25:19;6.83;;;5.67;;
19107;SDS011;9686;48.832;9.126;2023-06-14T01:27:48;6.23;;;4.83;;
19107;SDS011;9686;48.832;9.126;2023-06-14T01:30:16;6.07;;;5.47;;
19107;SDS011;9686;48.832;9.126;2023-06-14T01:32:42;5.60;;;5.10;;
19107;SDS011;9686;48.832;9.126;2023-06-14T01:35:09;5.30;;;4.80;;
19107;SDS011;9686;48.832;9.126;2023-06-14T01:37:35;5.80;;;5.30;;
19107;SDS011;9686;48.832;9.126;2023-06-14T01:40:01;6.03;;;4.50;;
19107;SDS011;9686;48.832;9.126;2023-06-14T01:42:29;7.73;;;4.97;;
19107;SDS011;9686;48.832;9.126;2023-06-14T01:44:55;6.37;;;5.30;;
19107;SDS011;9686;48.832;9.126;2023-06-14T01:47:21;5.80;;;5.30;;
19107;SDS011;9686;48.832;9.126;2023-06-14T01:49:46;8.83;;;5.23;;
19107;SDS011;9686;48.832;9.126;2023-06-14T01:52:12;9.57;;;5.33;;
19107;SDS011;9686;48.832;9.126;2023-06-14T01:54:38;5.80;;;5.30;;
19107;SDS011;9686;48.832;9.126;2023-06-14T01:57:07;5.57;;;5.00;;
19107;SDS011;9686;48.832;9.126;2023-06-14T01:59:33;6.63;;;4.90;;
19107;SDS011;9686;48.832;9.126;2023-06-14T02:02:00;6.87;;;5.07;;
19107;SDS011;9686;48.832;9.126;2023-06-14T02:04:25;6.03;;;5.43;;
19107;SDS011;9686;48.832;9.126;2023-06-14T02:06:50;5.87;;;4.77;;
19107;SDS011;9686;48.832;9.126;2023-06-14T02:09:15;5.87;;;5.23;;
19107;SDS011;9686;48.832;9.126;2023-06-14T02:11:41;9.50;;;5.40;;
19107;SDS011;9686;48.832;9.126;2023-06-14T02:14:06;7.10;;;5.10;;
19107;SDS011;9686;48.832;9.126;2023-06-14T02:16:32;7.43;;;5.20;;
19107;SDS011;9686;48.832;9.126;2023-06-14T02:18:57;5.10;;;4.70;;
19107;SDS011;9686;48.832;9.126;2023-06-14T02:21:23;9.93;;;5.20;;
19107;SDS011;9686;48.832;9.126;2023-06-14T02:23:48;7.77;;;4.87;;
19107;SDS011;9686;48.832;9.126;2023-06-14T02:26:13;6.73;;;5.37;;
19107;SDS011;9686;48.832;9.126;2023-06-14T02:28:38;5.77;;;4.57;;
19107;SDS011;9686;48.832;9.126;2023-06-14T02:31:04;5.60;;;5.00;;
19107;SDS011;9686;48.832;9.126;2023-06-14T02:33:29;5.23;;;4.73;;
19107;SDS011;9686;48.832;9.126;2023-06-14T02:35:54;5.93;;;4.60;;
19107;SDS011;9686;48.832;9.126;2023-06-14T02:38:21;6.63;;;4.97;;
19107;SDS011;9686;48.832;9.126;2023-06-14T02:40:46;7.17;;;5.37;;
19107;SDS011;9686;48.832;9.126;2023-06-14T02:43:11;6.53;;;5.30;;
19107;SDS011;9686;48.832;9.126;2023-06-14T02:45:37;7.53;;;5.17;;
19107;SDS011;9686;48.832;9.126;2023-06-14T02:48:02;6.63;;;4.63;;
19107;SDS011;9686;48.832;9.126;2023-06-14T02:50:28;5.23;;;4.50;;
19107;SDS011;9686;48.832;9.126;2023-06-14T02:52:54;8.27;;;5.30;;
19107;SDS011;9686;48.832;9.126;2023-06-14T02:55:21;5.63;;;5.13;;
19107;SDS011;9686;48.832;9.126;2023-06-14T02:57:47;6.47;;;5.13;;
19107;SDS011;9686;48.832;9.126;2023-06-14T03:00:13;5.50;;;5.00;;
19107;SDS011;9686;48.832;9.126;2023-06-14T03:02:39;6.77;;;5.37;;
19107;SDS011;9686;48.832;9.126;2023-06-14T03:05:04;7.23;;;5.10;;
19107;SDS011;9686;48.832;9.126;2023-06-14T03:07:31;6.10;;;4.60;;
19107;SDS011;9686;48.832;9.126;2023-06-14T03:09:57;6.03;;;4.63;;
19107;SDS011;9686;48.832;9.126;2023-06-14T03:12:22;5.17;;;4.70;;
19107;SDS011;9686;48.832;9.126;2023-06-14T03:14:48;7.20;;;5.10;;
19107;SDS011;9686;48.832;9.126;2023-06-14T03:17:15;8.33;;;5.47;;
19107;SDS011;9686;48.832;9.126;2023-06-14T03:19:42;6.40;;;5.13;;
19107;SDS011;9686;48.832;9.126;2023-06-14T03:22:07;5.73;;;5.13;;
19107;SDS011;9686;48.832;9.126;2023-06-14T03:24:33;6.53;;;4.93;;
19107;SDS011;9686;48.832;9.126;2023-06-14T03:27:01;5.67;;;4.93;;
19107;SDS011;9686;48.832;9.126;2023-06-14T03:29:27;7.27;;;4.70;;
19107;SDS011;9686;48.832;9.126;2023-06-14T03:31:59;5.47;;;4.93;;
19107;SDS011;9686;48.832;9.126;2023-06-14T03:34:27;6.20;;;5.43;;
19107;SDS011;9686;48.832;9.126;2023-06-14T03:36:52;5.93;;;5.20;;
19107;SDS011;9686;48.832;9.126;2023-06-14T03:39:18;7.33;;;5.10;;
19107;SDS011;9686;48.832;9.126;2023-06-14T03:41:44;6.20;;;5.20;;
19107;SDS011;9686;48.832;9.126;2023-06-14T03:44:09;8.67;;;5.47;;
19107;SDS011;9686;48.832;9.126;2023-06-14T03:46:34;6.20;;;4.80;;
19107;SDS011;9686;48.832;9.126;2023-06-14T03:49:00;5.93;;;5.33;;
19107;SDS011;9686;48.832;9.126;2023-06-14T03:51:27;5.40;;;4.87;;
19107;SDS011;9686;48.832;9.126;2023-06-14T03:53:53;7.70;;;5.03;;
19107;SDS011;9686;48.832;9.126;2023-06-14T03:56:19;5.13;;;4.60;;
19107;SDS011;9686;48.832;9.126;2023-06-14T03:58:44;7.63;;;5.10;;
19107;SDS011;9686;48.832;9.126;2023-06-14T04:01:09;6.43;;;5.33;;
19107;SDS011;9686;48.832;9.126;2023-06-14T04:03:37;6.87;;;4.97;;
19107;SDS011;9686;48.832;9.126;2023-06-14T04:06:03;8.03;;;4.93;;
19107;SDS011;9686;48.832;9.126;2023-06-14T04:08:30;5.77;;;5.27;;
19107;SDS011;9686;48.832;9.126;2023-06-14T04:10:56;6.47;;;5.30;;
19107;SDS011;9686;48.832;9.126;2023-06-14T04:13:21;5.30;;;4.80;;
19107;SDS011;9686;48.832;9.126;2023-06-14T04:15:46;7.07;;;5.63;;
19107;SDS011;9686;48.832;9.126;2023-06-14T04:18:12;8.00;;;5.83;;
19107;SDS011;9686;48.832;9.126;2023-06-14T04:20:38;5.80;;;5.20;;
19107;SDS011;9686;48.832;9.126;2023-06-14T04:23:13;7.20;;;5.60;;
19107;SDS011;9686;48.832;9.126;2023-06-14T04:25:40;9.83;;;5.60;;
19107;SDS011;9686;48.832;9.126;2023-06-14T04:28:05;8.10;;;6.03;;
19107;SDS011;9686;48.832;9.126;2023-06-14T04:30:34;7.43;;;5.27;;
19107;SDS011;9686;48.832;9.126;2023-06-14T04:33:00;8.43;;;6.07;;
19107;SDS011;9686;48.832;9.126;2023-06-14T04:35:25;6.03;;;5.43;;
19107;SDS011;9686;48.832;9.126;2023-06-14T04:37:52;6.33;;;5.73;;
19107;SDS011;9686;48.832;9.126;2023-06-14T04:40:18;8.07;;;6.33;;
19107;SDS011;9686;48.832;9.126;2023-06-14T04:42:43;7.80;;;6.77;;
19107;SDS011;9686;48.832;9.126;2023-06-14T04:45:09;7.03;;;6.23;;
19107;SDS011;9686;48.832;9.126;2023-06-14T04:47:36;7.97;;;5.93;;
19107;SDS011;9686;48.832;9.126;2023-06-14T04:50:02;6.63;;;5.93;;
19107;SDS011;9686;48.832;9.126;2023-06-14T04:52:28;8.73;;;6.17;;
19107;SDS011;9686;48.832;9.126;2023-06-14T04:54:54;6.90;;;6.20;;
19107;SDS011;9686;48.832;9.126;2023-06-14T04:57:20;8.53;;;6.70;;
19107;SDS011;9686;48.832;9.126;2023-06-14T04:59:47;7.03;;;6.43;;
19107;SDS011;9686;48.832;9.126;2023-06-14T05:02:13;8.23;;;6.67;;
19107;SDS011;9686;48.832;9.126;2023-06-14T05:04:39;10.00;;;6.60;;
19107;SDS011;9686;48.832;9.126;2023-06-14T05:07:06;7.87;;;7.03;;
19107;SDS011;9686;48.832;9.126;2023-06-14T05:09:33;9.57;;;7.17;;
19107;SDS011;9686;48.832;9.126;2023-06-14T05:11:58;7.50;;;6.80;;
19107;SDS011;9686;48.832;9.126;2023-06-14T05:14:25;8.23;;;6.80;;
19107;SDS011;9686;48.832;9.126;2023-06-14T05:16:50;9.43;;;6.27;;
19107;SDS011;9686;48.832;9.126;2023-06-14T05:19:16;7.90;;;6.97;;
19107;SDS011;9686;48.832;9.126;2023-06-14T05:21:43;8.67;;;7.77;;
19107;SDS011;9686;48.832;9.126;2023-06-14T05:24:08;7.83;;;7.13;;
19107;SDS011;9686;48.832;9.126;2023-06-14T05:26:34;8.47;;;7.87;;
19107;SDS011;9686;48.832;9.126;2023-06-14T05:29:00;8.27;;;7.67;;
19107;SDS011;9686;48.832;9.126;2023-06-14T05:31:26;13.37;;;8.83;;
19107;SDS011;9686;48.832;9.126;2023-06-14T05:33:52;9.03;;;7.70;;
19107;SDS011;9686;48.832;9.126;2023-06-14T05:36:18;8.60;;;7.87;;
19107;SDS011;9686;48.832;9.126;2023-06-14T05:38:43;9.33;;;8.53;;
19107;SDS011;9686;48.832;9.126;2023-06-14T05:41:09;10.60;;;9.40;;
19107;SDS011;9686;48.832;9.126;2023-06-14T05:43:35;9.73;;;8.97;;
19107;SDS011;9686;48.832;9.126;2023-06-14T05:46:00;9.73;;;9.10;;
19107;SDS011;9686;48.832;9.126;2023-06-14T05:48:26;9.23;;;8.63;;
19107;SDS011;9686;48.832;9.126;2023-06-14T05:50:51;10.57;;;9.67;;
19107;SDS011;9686;48.832;9.126;2023-06-14T05:53:16;10.37;;;9.57;;
19107;SDS011;9686;48.832;9.126;2023-06-14T05:55:41;9.43;;;8.63;;
19107;SDS011;9686;48.832;9.126;2023-06-14T05:58:07;11.37;;;10.50;;
19107;SDS011;9686;48.832;9.126;2023-06-14T06:00:32;10.80;;;10.00;;
19107;SDS011;9686;48.832;9.126;2023-06-14T06:02:58;9.90;;;9.13;;
19107;SDS011;9686;48.832;9.126;2023-06-14T06:05:24;12.13;;;11.10;;
19107;SDS011;9686;48.832;9.126;2023-06-14T06:07:49;11.57;;;10.60;;
19107;SDS011;9686;48.832;9.126;2023-06-14T06:10:15;11.47;;;10.57;;
19107;SDS011;9686;48.832;9.126;2023-06-14T06:12:41;12.63;;;11.63;;
19107;SDS011;9686;48.832;9.126;2023-06-14T06:15:06;11.13;;;10.43;;
19107;SDS011;9686;48.832;9.126;2023-06-14T06:17:32;12.13;;;11.33;;
19107;SDS011;9686;48.832;9.126;2023-06-14T06:19:58;12.60;;;11.87;;
19107;SDS011;9686;48.832;9.126;2023-06-14T06:22:23;11.57;;;10.67;;
19107;SDS011;9686;48.832;9.126;2023-06-14T06:24:48;12.97;;;12.23;;
19107;SDS011;9686;48.832;9.126;2023-06-14T06:27:14;11.40;;;10.73;;
19107;SDS011;9686;48.832;9.126;2023-06-14T06:29:41;12.07;;;11.03;;
19107;SDS011;9686;48.832;9.126;2023-06-14T06:32:07;13.53;;;12.67;;
19107;SDS011;9686;48.832;9.126;2023-06-14T06:34:32;13.60;;;12.50;;
19107;SDS011;9686;48.832;9.126;2023-06-14T06:36:58;12.77;;;11.97;;
19107;SDS011;9686;48.832;9.126;2023-06-14T06:39:23;13.87;;;12.70;;
19107;SDS011;9686;48.832;9.126;2023-06-14T06:41:48;16.03;;;14.93;;
19107;SDS011;9686;48.832;9.126;2023-06-14T06:44:13;15.77;;;14.43;;
19107;SDS011;9686;48.832;9.126;2023-06-14T06:46:39;15.90;;;14.90;;
19107;SDS011;9686;48.832;9.126;2023-06-14T06:49:06;15.47;;;14.43;;
19107;SDS011;9686;48.832;9.126;2023-06-14T06:51:31;15.57;;;14.67;;
19107;SDS011;9686;48.832;9.126;2023-06-14T06:53:58;17.63;;;16.63;;
19107;SDS011;9686;48.832;9.126;2023-06-14T06:56:23;15.87;;;14.87;;
19107;SDS011;9686;48.832;9.126;2023-06-14T06:58:49;17.27;;;16.23;;
19107;SDS011;9686;48.832;9.126;2023-06-14T07:01:15;17.23;;;16.07;;
19107;SDS011;9686;48.832;9.126;2023-06-14T07:03:41;16.10;;;15.10;;
19107;SDS011;9686;48.832;9.126;2023-06-14T07:06:06;17.93;;;16.93;;
19107;SDS011;9686;48.832;9.126;2023-06-14T07:08:31;19.53;;;18.23;;
19107;SDS011;9686;48.832;9.126;2023-06-14T07:10:57;17.23;;;16.27;;
19107;SDS011;9686;48.832;9.126;2023-06-14T07:13:22;18.77;;;17.77;;
19107;SDS011;9686;48.832;9.126;2023-06-14T07:15:47;19.13;;;18.07;;
19107;SDS011;9686;48.832;9.126;2023-06-14T07:18:13;19.73;;;18.63;;
19107;SDS011;9686;48.832;9.126;2023-06-14T07:20:38;19.67;;;18.53;;
19107;SDS011;9686;48.832;9.126;2023-06-14T07:23:03;19.67;;;18.50;;
19107;SDS011;9686;48.832;9.126;2023-06-14T07:25:30;20.20;;;19.17;;
19107;SDS011;9686;48.832;9.126;2023-06-14T07:27:55;18.67;;;17.57;;
19107;SDS011;9686;48.832;9.126;2023-06-14T07:30:21;20.03;;;18.93;;
19107;SDS011;9686;48.832;9.126;2023-06-14T07:32:50;18.93;;;17.73;;
19107;SDS011;9686;48.832;9.126;2023-06-14T07:35:16;18.93;;;17.93;;
19107;SDS011;9686;48.832;9.126;2023-06-14T07:37:41;20.73;;;19.63;;
19107;SDS011;9686;48.832;9.126;2023-06-14T07:40:07;21.10;;;20.03;;
19107;SDS011;9686;48.832;9.126;2023-06-14T07:42:36;27.13;;;25.57;;
19107;SDS011;9686;48.832;9.126;2023-06-14T07:45:05;27.10;;;25.40;;
19107;SDS011;9686;48.832;9.126;2023-06-14T07:47:31;25.33;;;24.03;;
19107;SDS011;9686;48.832;9.126;2023-06-14T07:49:56;24.07;;;22.67;;
19107;SDS011;9686;48.832;9.126;2023-06-14T07:52:22;26.40;;;24.60;;
19107;SDS011;9686;48.832;9.126;2023-06-14T07:54:47;25.00;;;23.70;;
19107;SDS011;9686;48.832;9.126;2023-06-14T07:57:12;26.83;;;25.33;;
19107;SDS011;9686;48.832;9.126;2023-06-14T07:59:38;26.53;;;25.13;;
19107;SDS011;9686;48.832;9.126;2023-06-14T08:02:03;24.13;;;22.73;;
19107;SDS011;9686;48.832;9.126;2023-06-14T08:04:29;28.87;;;27.47;;
19107;SDS011;9686;48.832;9.126;2023-06-14T08:06:54;31.07;;;29.53;;
19107;SDS011;9686;48.832;9.126;2023-06-14T08:09:19;28.97;;;27.40;;
19107;SDS011;9686;48.832;9.126;2023-06-14T08:11:45;31.53;;;29.90;;
19107;SDS011;9686;48.832;9.126;2023-06-14T08:14:10;30.63;;;29.30;;
19107;SDS011;9686;48.832;9.126;2023-06-14T08:16:36;32.10;;;30.50;;
19107;SDS011;9686;48.832;9.126;2023-06-14T08:19:02;31.40;;;29.83;;
19107;SDS011;9686;48.832;9.126;2023-06-14T08:21:27;34.13;;;32.60;;
19107;SDS011;9686;48.832;9.126;2023-06-14T08:23:54;37.17;;;35.37;;
19107;SDS011;9686;48.832;9.126;2023-06-14T08:26:19;34.53;;;32.73;;
19107;SDS011;9686;48.832;9.126;2023-06-14T08:28:45;35.67;;;33.87;;
19107;SDS011;9686;48.832;9.126;2023-06-14T08:31:11;36.63;;;35.00;;
19107;SDS011;9686;48.832;9.126;2023-06-14T08:33:36;36.13;;;34.33;;
19107;SDS011;9686;48.832;9.126;2023-06-14T08:36:01;37.80;;;36.07;;
19107;SDS011;9686;48.832;9.126;2023-06-14T08:38:27;36.77;;;34.97;;
19107;SDS011;9686;48.832;9.126;2023-06-14T08:40:52;41.07;;;39.23;;
19107;SDS011;9686;48.832;9.126;2023-06-14T08:43:22;39.23;;;37.27;;
19107;SDS011;9686;48.832;9.126;2023-06-14T08:45:48;41.37;;;39.27;;
19107;SDS011;9686;48.832;9.126;2023-06-14T08:48:18;40.33;;;38.47;;
19107;SDS011;9686;48.832;9.126;2023-06-14T08:50:45;39.43;;;37.63;;
19107;SDS011;9686;48.832;9.126;2023-06-14T08:53:13;44.50;;;42.23;;
19107;SDS011;9686;48.832;9.126;2023-06-14T08:55:45;42.87;;;40.87;;
19107;SDS011;9686;48.832;9.126;2023-06-14T08:58:10;40.60;;;38.77;;
19107;SDS011;9686;48.832;9.126;2023-06-14T09:00:39;40.73;;;38.80;;
19107;SDS011;9686;48.832;9.126;2023-06-14T09:03:06;48.07;;;45.77;;
19107;SDS011;9686;48.832;9.126;2023-06-14T09:05:35;41.83;;;39.83;;
19107;SDS011;9686;48.832;9.126;2023-06-14T09:08:01;41.07;;;38.97;;
19107;SDS011;9686;48.832;9.126;2023-06-14T09:10:26;42.57;;;40.57;;
19107;SDS011;9686;48.832;9.126;2023-06-14T09:12:52;41.70;;;39.70;;
19107;SDS011;9686;48.832;9.126;2023-06-14T09:15:18;46.43;;;44.33;;
19107;SDS011;9686;48.832;9.126;2023-06-14T09:17:43;44.90;;;42.77;;
19107;SDS011;9686;48.832;9.126;2023-06-14T09:20:09;47.47;;;45.27;;
19107;SDS011;9686;48.832;9.126;2023-06-14T09:22:35;48.83;;;46.70;;
19107;SDS011;9686;48.832;9.126;2023-06-14T09:25:01;48.73;;;46.57;;
19107;SDS011;9686;48.832;9.126;2023-06-14T09:27:30;48.43;;;46.30;;
19107;SDS011;9686;48.832;9.126;2023-06-14T09:29:55;49.30;;;46.77;;
19107;SDS011;9686;48.832;9.126;2023-06-14T09:32:21;48.37;;;46.20;;
19107;SDS011;9686;48.832;9.126;2023-06-14T09:34:47;48.20;;;45.83;;
19107;SDS011;9686;48.832;9.126;2023-06-14T09:37:13;50.47;;;48.27;;
19107;SDS011;9686;48.832;9.126;2023-06-14T09:39:51;48.50;;;46.17;;
19107;SDS011;9686;48.832;9.126;2023-06-14T09:42:17;49.17;;;46.73;;
19107;SDS011;9686;48.832;9.126;2023-06-14T09:44:45;50.33;;;47.93;;
19107;SDS011;9686;48.832;9.126;2023-06-14T09:47:12;45.93;;;43.83;;
19107;SDS011;9686;48.832;9.126;2023-06-14T09:49:39;43.67;;;41.67;;
19107;SDS011;9686;48.832;9.126;2023-06-14T09:52:05;39.40;;;37.67;;
19107;SDS011;9686;48.832;9.126;2023-06-14T09:54:32;42.73;;;40.83;;
19107;SDS011;9686;48.832;9.126;2023-06-14T09:57:03;43.10;;;40.73;;
19107;SDS011;9686;48.832;9.126;2023-06-14T09:59:31;45.70;;;43.60;;
19107;SDS011;9686;48.832;9.126;2023-06-14T10:01:57;50.87;;;48.57;;
19107;SDS011;9686;48.832;9.126;2023-06-14T10:04:24;43.17;;;41.07;;
19107;SDS011;9686;48.832;9.126;2023-06-14T10:06:52;41.63;;;39.70;;
19107;SDS011;9686;48.832;9.126;2023-06-14T10:09:18;43.43;;;41.33;;
19107;SDS011;9686;48.832;9.126;2023-06-14T10:11:44;44.23;;;42.27;;
19107;SDS011;9686;48.832;9.126;2023-06-14T10:14:11;41.80;;;39.83;;
19107;SDS011;9686;48.832;9.126;2023-06-14T10:19:25;48.13;;;45.53;;
19107;SDS011;9686;48.832;9.126;2023-06-14T10:22:01;45.63;;;43.57;;
19107;SDS011;9686;48.832;9.126;2023-06-14T10:24:32;47.73;;;45.57;;
19107;SDS011;9686;48.832;9.126;2023-06-14T10:27:03;41.57;;;39.57;;
19107;SDS011;9686;48.832;9.126;2023-06-14T10:29:35;45.87;;;43.90;;
19107;SDS011;9686;48.832;9.126;2023-06-14T10:32:26;43.43;;;41.47;;
19107;SDS011;9686;48.832;9.126;2023-06-14T10:35:00;44.80;;;42.60;;
19107;SDS011;9686;48.832;9.126;2023-06-14T10:37:29;45.13;;;43.07;;
19107;SDS011;9686;48.832;9.126;2023-06-14T10:39:54;43.70;;;41.77;;
19107;SDS011;9686;48.832;9.126;2023-06-14T10:42:20;46.40;;;44.27;;
19107;SDS011;9686;48.832;9.126;2023-06-14T10:44:54;47.53;;;45.07;;
19107;SDS011;9686;48.832;9.126;2023-06-14T10:47:33;49.30;;;47.10;;
19107;SDS011;9686;48.832;9.126;2023-06-14T10:52:29;47.97;;;45.80;;
19107;SDS011;9686;48.832;9.126;2023-06-14T10:57:37;53.93;;;51.37;;
19107;SDS011;9686;48.832;9.126;2023-06-14T11:00:16;50.70;;;48.27;;
19107;SDS011;9686;48.832;9.126;2023-06-14T11:05:41;48.80;;;46.67;;
19107;SDS011;9686;48.832;9.126;2023-06-14T11:08:17;49.63;;;47.40;;
19107;SDS011;9686;48.832;9.126;2023-06-14T11:11:07;40.53;;;38.77;;
19107;SDS011;9686;48.832;9.126;2023-06-14T11:13:33;46.80;;;44.63;;
19107;SDS011;9686;48.832;9.126;2023-06-14T11:16:01;52.67;;;50.37;;
19107;SDS011;9686;48.832;9.126;2023-06-14T11:18:28;57.60;;;54.53;;
19107;SDS011;9686;48.832;9.126;2023-06-14T11:20:53;56.77;;;54.30;;
19107;SDS011;9686;48.832;9.126;2023-06-14T11:23:19;51.93;;;49.40;;
19107;SDS011;9686;48.832;9.126;2023-06-14T11:25:49;52.73;;;50.43;;
19107;SDS011;9686;48.832;9.126;2023-06-14T11:28:15;49.80;;;47.63;;
19107;SDS011;9686;48.832;9.126;2023-06-14T11:30:40;46.87;;;44.67;;
19107;SDS011;9686;48.832;9.126;2023-06-14T11:33:09;54.83;;;52.07;;
19107;SDS011;9686;48.832;9.126;2023-06-14T11:35:35;50.07;;;47.90;;
19107;SDS011;9686;48.832;9.126;2023-06-14T11:38:01;52.23;;;49.93;;
19107;SDS011;9686;48.832;9.126;2023-06-14T11:40:26;56.10;;;53.67;;
19107;SDS011;9686;48.832;9.126;2023-06-14T11:42:59;55.80;;;53.23;;
19107;SDS011;9686;48.832;9.126;2023-06-14T11:45:25;59.97;;;57.43;;
19107;SDS011;9686;48.832;9.126;2023-06-14T11:47:53;70.37;;;67.33;;
19107;SDS011;9686;48.832;9.126;2023-06-14T11:50:21;79.80;;;76.50;;
19107;SDS011;9686;48.832;9.126;2023-06-14T11:52:51;109.25;;;104.47;;
19107;SDS011;9686;48.832;9.126;2023-06-14T11:55:21;156.60;;;150.02;;
19107;SDS011;9686;48.832;9.126;2023-06-14T11:57:47;210.80;;;201.90;;
19107;SDS011;9686;48.832;9.126;2023-06-14T12:00:12;263.05;;;251.75;;
19107;SDS011;9686;48.832;9.126;2023-06-14T12:02:40;328.10;;;313.45;;
19107;SDS011;9686;48.832;9.126;2023-06-14T12:05:06;377.38;;;360.02;;
19107;SDS011;9686;48.832;9.126;2023-06-14T12:07:36;435.30;;;414.25;;
19107;SDS011;9686;48.832;9.126;2023-06-14T12:10:04;471.75;;;448.35;;
19107;SDS011;9686;48.832;9.126;2023-06-14T12:12:37;496.50;;;472.20;;
19107;SDS011;9686;48.832;9.126;2023-06-14T12:15:04;502.17;;;476.67;;
19107;SDS011;9686;48.832;9.126;2023-06-14T12:17:32;465.73;;;442.63;;
19107;SDS011;9686;48.832;9.126;2023-06-14T12:20:05;443.80;;;422.55;;
19107;SDS011;9686;48.832;9.126;2023-06-14T12:22:53;389.70;;;371.88;;
19107;SDS011;9686;48.832;9.126;2023-06-14T12:27:55;234.68;;;224.52;;
19107;SDS011;9686;48.832;9.126;2023-06-14T12:30:21;198.57;;;190.13;;
19107;SDS011;9686;48.832;9.126;2023-06-14T12:32:47;159.02;;;152.30;;
19107;SDS011;9686;48.832;9.126;2023-06-14T12:35:13;150.50;;;143.70;;
19107;SDS011;9686;48.832;9.126;2023-06-14T12:37:38;121.93;;;116.70;;
19107;SDS011;9686;48.832;9.126;2023-06-14T12:40:04;114.57;;;109.57;;
19107;SDS011;9686;48.832;9.126;2023-06-14T12:42:31;115.13;;;109.95;;
19107;SDS011;9686;48.832;9.126;2023-06-14T12:44:56;111.23;;;106.30;;
19107;SDS011;9686;48.832;9.126;2023-06-14T12:47:21;103.22;;;98.97;;
19107;SDS011;9686;48.832;9.126;2023-06-14T12:49:47;100.47;;;96.38;;
19107;SDS011;9686;48.832;9.126;2023-06-14T12:52:12;93.20;;;89.25;;
19107;SDS011;9686;48.832;9.126;2023-06-14T12:54:37;99.93;;;95.73;;
19107;SDS011;9686;48.832;9.126;2023-06-14T12:57:04;98.90;;;94.60;;
19107;SDS011;9686;48.832;9.126;2023-06-14T12:59:30;97.97;;;93.77;;
19107;SDS011;9686;48.832;9.126;2023-06-14T13:01:58;94.00;;;90.03;;
19107;SDS011;9686;48.832;9.126;2023-06-14T13:04:44;89.87;;;86.07;;
19107;SDS011;9686;48.832;9.126;2023-06-14T13:07:09;100.80;;;96.43;;
19107;SDS011;9686;48.832;9.126;2023-06-14T13:09:36;87.63;;;84.03;;
19107;SDS011;9686;48.832;9.126;2023-06-14T13:12:01;93.20;;;89.00;;
19107;SDS011;9686;48.832;9.126;2023-06-14T13:14:27;91.20;;;87.20;;
19107;SDS011;9686;48.832;9.126;2023-06-14T13:16:52;91.57;;;87.27;;
19107;SDS011;9686;48.832;9.126;2023-06-14T13:19:17;81.70;;;78.23;;
19107;SDS011;9686;48.832;9.126;2023-06-14T13:21:43;89.77;;;85.93;;
19107;SDS011;9686;48.832;9.126;2023-06-14T13:24:08;89.73;;;84.77;;
19107;SDS011;9686;48.832;9.126;2023-06-14T13:26:33;78.57;;;75.27;;
19107;SDS011;9686;48.832;9.126;2023-06-14T13:28:59;86.80;;;83.10;;
19107;SDS011;9686;48.832;9.126;2023-06-14T13:31:24;83.37;;;79.93;;
19107;SDS011;9686;48.832;9.126;2023-06-14T13:33:50;82.30;;;78.73;;
19107;SDS011;9686;48.832;9.126;2023-06-14T13:36:15;93.33;;;89.40;;
19107;SDS011;9686;48.832;9.126;2023-06-14T13:38:41;92.07;;;88.07;;
19107;SDS011;9686;48.832;9.126;2023-06-14T13:41:06;87.97;;;84.27;;
19107;SDS011;9686;48.832;9.126;2023-06-14T13:43:31;90.60;;;86.80;;
19107;SDS011;9686;48.832;9.126;2023-06-14T13:45:57;96.97;;;92.77;;
19107;SDS011;9686;48.832;9.126;2023-06-14T13:48:22;90.37;;;86.47;;
19107;SDS011;9686;48.832;9.126;2023-06-14T13:50:47;94.73;;;90.63;;
19107;SDS011;9686;48.832;9.126;2023-06-14T13:53:13;95.10;;;90.90;;
19107;SDS011;9686;48.832;9.126;2023-06-14T13:55:39;93.07;;;89.13;;
19107;SDS011;9686;48.832;9.126;2023-06-14T13:58:04;86.13;;;82.57;;
19107;SDS011;9686;48.832;9.126;2023-06-14T14:00:29;91.30;;;87.47;;
19107;SDS011;9686;48.832;9.126;2023-06-14T14:02:55;86.07;;;82.37;;
19107;SDS011;9686;48.832;9.126;2023-06-14T14:05:22;81.07;;;77.77;;
19107;SDS011;9686;48.832;9.126;2023-06-14T14:07:51;78.33;;;75.03;;
19107;SDS011;9686;48.832;9.126;2023-06-14T14:10:17;89.40;;;85.53;;
19107;SDS011;9686;48.832;9.126;2023-06-14T14:12:45;93.13;;;89.10;;
19107;SDS011;9686;48.832;9.126;2023-06-14T14:15:11;86.43;;;82.80;;
19107;SDS011;9686;48.832;9.126;2023-06-14T14:17:39;79.93;;;76.60;;
19107;SDS011;9686;48.832;9.126;2023-06-14T14:20:05;81.67;;;78.10;;
19107;SDS011;9686;48.832;9.126;2023-06-14T14:22:31;82.23;;;78.23;;
19107;SDS011;9686;48.832;9.126;2023-06-14T14:24:57;84.97;;;81.43;;
19107;SDS011;9686;48.832;9.126;2023-06-14T14:27:22;83.33;;;79.80;;
19107;SDS011;9686;48.832;9.126;2023-06-14T14:29:47;77.18;;;73.78;;
19107;SDS011;9686;48.832;9.126;2023-06-14T14:32:13;75.80;;;72.70;;
19107;SDS011;9686;48.832;9.126;2023-06-14T14:34:39;76.50;;;73.03;;
19107;SDS011;9686;48.832;9.126;2023-06-14T14:37:04;75.93;;;72.77;;
19107;SDS011;9686;48.832;9.126;2023-06-14T14:39:30;89.83;;;85.90;;
19107;SDS011;9686;48.832;9.126;2023-06-14T14:41:55;85.37;;;81.87;;
19107;SDS011;9686;48.832;9.126;2023-06-14T14:44:21;93.10;;;89.27;;
19107;SDS011;9686;48.832;9.126;2023-06-14T14:46:46;84.40;;;80.67;;
19107;SDS011;9686;48.832;9.126;2023-06-14T14:49:11;85.03;;;81.50;;
19107;SDS011;9686;48.832;9.126;2023-06-14T14:51:37;82.33;;;78.83;;
19107;SDS011;9686;48.832;9.126;2023-06-14T14:54:03;89.03;;;85.23;;
19107;SDS011;9686;48.832;9.126;2023-06-14T14:56:29;89.73;;;85.90;;